Terminal Aerodrome Forecast
Issued by NWS Pocatello, ID

Home | Current Version | Previous Version | Text Only | Print | Product List | Glossary On
Versions: 1 2 3 4 5 6 7 8 9 10 11 12
000
FTUS45 KPIH 031720
TAFBYI
TAF
KBYI 031720Z 0318/0418 VRB06KT P6SM VCTS SCT100CB BKN120
     FM032000 28010KT P6SM VCTS SCT060CB BKN110
     FM040300 20006KT P6SM SCT120=

USA.gov is the U.S. government's official web portal to all federal, state and local government web resources and services.